createdAt,value
2019-03-20T00:00:56.799Z,17.30
2019-03-20T00:03:26.403Z,16.07
2019-03-20T00:05:56.904Z,18.43
2019-03-20T00:08:26.195Z,22.80
2019-03-20T00:10:56.289Z,17.30
2019-03-20T00:13:25.997Z,18.93
2019-03-20T00:15:55.796Z,18.20
2019-03-20T00:18:25.995Z,16.37
2019-03-20T00:20:56.000Z,18.63
2019-03-20T00:23:25.630Z,18.17
2019-03-20T00:25:55.901Z,20.37
2019-03-20T00:28:26.760Z,23.03
2019-03-20T00:30:56.533Z,17.13
2019-03-20T00:33:26.020Z,13.43
2019-03-20T00:35:56.486Z,15.17
2019-03-20T00:38:26.739Z,17.33
2019-03-20T00:40:56.805Z,19.43
2019-03-20T00:43:26.169Z,19.47
2019-03-20T00:45:56.208Z,15.57
2019-03-20T00:48:25.694Z,14.43
2019-03-20T00:50:55.356Z,19.47
2019-03-20T00:53:24.973Z,17.27
2019-03-20T00:55:54.883Z,16.63
2019-03-20T00:58:24.627Z,20.03
2019-03-20T01:00:54.353Z,16.90
2019-03-20T01:03:23.662Z,21.30
2019-03-20T01:05:54.186Z,16.30
2019-03-20T01:08:23.548Z,19.40
2019-03-20T01:10:53.214Z,18.07
2019-03-20T01:13:22.757Z,13.80
2019-03-20T01:15:52.344Z,15.37
2019-03-20T01:18:22.587Z,16.10
2019-03-20T01:20:52.118Z,22.10
2019-03-20T01:23:21.759Z,11.03
2019-03-20T01:25:51.377Z,14.97
2019-03-20T01:28:20.931Z,18.10
2019-03-20T01:30:50.544Z,16.27
2019-03-20T01:33:20.316Z,14.77
2019-03-20T01:35:49.652Z,17.83
2019-03-20T01:38:19.144Z,13.73
2019-03-20T01:40:48.745Z,17.13
2019-03-20T01:43:18.057Z,12.10
2019-03-20T01:45:47.396Z,18.00
2019-03-20T01:48:16.937Z,15.60
2019-03-20T01:50:46.315Z,15.27
2019-03-20T01:53:15.583Z,15.20
2019-03-20T01:55:44.863Z,16.03
2019-03-20T01:58:14.195Z,18.67
2019-03-20T02:00:43.479Z,16.13
2019-03-20T02:03:12.787Z,20.57
2019-03-20T02:05:42.063Z,16.17
2019-03-20T02:08:11.375Z,19.73
2019-03-20T02:10:40.663Z,11.93
2019-03-20T02:13:09.905Z,13.37
2019-03-20T02:15:39.816Z,17.63
2019-03-20T02:18:09.161Z,19.93
2019-03-20T02:20:38.475Z,13.67
2019-03-20T02:23:07.760Z,16.87
2019-03-20T02:25:37.337Z,19.57
2019-03-20T02:28:07.034Z,13.37
2019-03-20T02:30:36.576Z,12.60
2019-03-20T02:33:05.951Z,12.60
2019-03-20T02:35:50.297Z,15.37
2019-03-20T02:38:06.440Z,17.57
2019-03-20T02:40:35.848Z,18.60
2019-03-20T02:43:05.523Z,18.23
2019-03-20T02:45:34.950Z,13.73
2019-03-20T02:48:04.394Z,18.47
2019-03-20T02:50:33.849Z,17.73
2019-03-20T02:53:03.241Z,14.87
2019-03-20T02:55:35.783Z,14.73
2019-03-20T02:58:05.449Z,18.73
2019-03-20T03:00:34.807Z,17.83
2019-03-20T03:03:04.207Z,16.43
2019-03-20T03:05:33.765Z,15.43
2019-03-20T03:08:03.085Z,20.17
2019-03-20T03:10:32.579Z,21.50
2019-03-20T03:13:04.644Z,15.87
2019-03-20T03:15:33.969Z,20.60
2019-03-20T03:18:03.321Z,22.00
2019-03-20T03:20:32.873Z,13.73
2019-03-20T03:23:02.123Z,18.00
2019-03-20T03:25:31.436Z,19.60
2019-03-20T03:28:00.744Z,14.83
2019-03-20T03:30:30.020Z,17.07
2019-03-20T03:33:00.206Z,21.43
2019-03-20T03:35:29.552Z,16.10
2019-03-20T03:37:59.161Z,18.30
2019-03-20T03:40:28.711Z,18.33
2019-03-20T03:42:58.276Z,23.27
2019-03-20T03:45:27.561Z,16.77
2019-03-20T03:47:56.893Z,11.97
2019-03-20T03:50:26.522Z,19.40
2019-03-20T03:52:56.194Z,19.73
2019-03-20T03:55:26.158Z,18.93
2019-03-20T03:57:56.009Z,15.80
2019-03-20T04:00:25.337Z,20.93
2019-03-20T04:02:54.886Z,14.90
2019-03-20T04:05:24.183Z,20.13
2019-03-20T04:07:53.806Z,18.03
2019-03-20T04:10:23.357Z,17.97
2019-03-20T04:12:52.677Z,17.07
2019-03-20T04:15:21.986Z,15.77
2019-03-20T04:17:51.304Z,28.30
2019-03-20T04:20:21.054Z,18.73
2019-03-20T04:22:50.440Z,18.70
2019-03-20T04:25:19.747Z,25.70
2019-03-20T04:27:49.104Z,20.10
2019-03-20T04:30:18.673Z,18.37
2019-03-20T04:32:48.040Z,19.13
2019-03-20T04:35:17.550Z,20.77
2019-03-20T04:37:46.823Z,14.80
2019-03-20T04:40:17.010Z,19.03
2019-03-20T04:42:46.373Z,24.93
2019-03-20T04:45:15.782Z,20.80
2019-03-20T04:47:45.100Z,18.37
2019-03-20T04:50:14.424Z,20.27
2019-03-20T04:52:43.726Z,19.27
2019-03-20T04:55:13.453Z,22.77
2019-03-20T04:57:42.765Z,17.10
2019-03-20T05:00:13.984Z,16.20
2019-03-20T05:02:43.871Z,15.67
2019-03-20T05:05:13.543Z,19.10
2019-03-20T05:07:42.880Z,25.23
2019-03-20T05:10:12.780Z,18.83
2019-03-20T05:12:42.375Z,20.83
2019-03-20T05:15:12.183Z,17.67
2019-03-20T05:17:41.492Z,21.83
2019-03-20T05:20:12.526Z,18.27
2019-03-20T05:22:41.868Z,17.83
2019-03-20T05:25:11.163Z,18.07
2019-03-20T05:27:40.758Z,23.63
2019-03-20T05:30:11.471Z,15.57
2019-03-20T05:32:40.763Z,19.50
2019-03-20T05:35:10.810Z,19.10
2019-03-20T05:37:42.703Z,18.97
2019-03-20T05:40:13.556Z,21.50
2019-03-20T05:42:42.858Z,30.23
2019-03-20T05:45:13.660Z,24.07
2019-03-20T05:47:43.216Z,23.03
2019-03-20T05:50:13.059Z,16.67
2019-03-20T05:52:42.415Z,20.57
2019-03-20T05:55:11.722Z,21.67
2019-03-20T05:57:41.357Z,17.73
2019-03-20T06:00:12.986Z,19.83
2019-03-20T06:02:42.269Z,18.77
2019-03-20T06:05:11.539Z,24.33
2019-03-20T06:07:41.425Z,22.73
2019-03-20T06:10:12.167Z,17.67
2019-03-20T06:12:41.522Z,17.07
2019-03-20T06:15:11.320Z,25.13
2019-03-20T06:17:40.932Z,24.87
2019-03-20T06:20:10.311Z,23.50
2019-03-20T06:22:39.596Z,20.08
2019-03-20T06:25:09.241Z,25.80
2019-03-20T06:27:38.537Z,21.93
2019-03-20T06:30:10.290Z,25.03
2019-03-20T06:32:39.835Z,23.23
2019-03-20T06:35:09.404Z,21.37
2019-03-20T06:37:38.689Z,18.60
2019-03-20T06:40:08.931Z,22.30
2019-03-20T06:42:38.311Z,27.77
2019-03-20T06:45:08.899Z,18.90
2019-03-20T06:47:38.487Z,18.70
2019-03-20T06:50:10.936Z,20.87
2019-03-20T06:52:40.492Z,30.60
2019-03-20T06:55:09.937Z,15.83
2019-03-20T06:57:39.500Z,25.10
2019-03-20T07:00:43.879Z,28.57
2019-03-20T07:03:20.281Z,20.27
2019-03-20T07:06:09.282Z,22.10
2019-03-20T07:08:43.919Z,23.20
2019-03-20T07:11:12.866Z,21.33
2019-03-20T07:13:42.143Z,23.57
2019-03-20T07:16:11.427Z,26.07
2019-03-20T07:18:41.019Z,21.80
2019-03-20T07:21:11.713Z,18.47
2019-03-20T07:23:41.280Z,24.87
2019-03-20T07:26:10.592Z,24.00
2019-03-20T07:28:39.875Z,18.03
2019-03-20T07:31:15.095Z,20.47
2019-03-20T07:33:40.172Z,25.50
2019-03-20T07:36:09.568Z,18.23
2019-03-20T07:38:38.887Z,17.57
2019-03-20T07:41:08.241Z,15.57
2019-03-20T07:43:37.873Z,15.20
2019-03-20T07:46:07.468Z,21.47
2019-03-20T07:48:36.842Z,16.43
2019-03-20T07:51:06.144Z,16.43
2019-03-20T07:53:35.416Z,15.47
2019-03-20T07:56:04.957Z,19.70
2019-03-20T07:58:34.560Z,14.87
2019-03-20T08:01:04.077Z,15.07
2019-03-20T08:03:33.692Z,15.77
2019-03-20T08:06:03.257Z,19.33
2019-03-20T08:08:32.863Z,19.27
2019-03-20T08:11:02.503Z,18.53
2019-03-20T08:13:32.127Z,14.53
2019-03-20T08:16:03.850Z,16.43
2019-03-20T08:18:32.556Z,16.70
2019-03-20T08:21:01.896Z,18.10
2019-03-20T08:23:33.079Z,15.90
2019-03-20T08:26:02.508Z,18.90
2019-03-20T08:28:31.788Z,17.40
2019-03-20T08:31:01.084Z,24.20
2019-03-20T08:33:31.836Z,19.83
2019-03-20T08:36:01.376Z,16.27
2019-03-20T08:38:31.036Z,15.20
2019-03-20T08:41:00.453Z,10.97
2019-03-20T08:43:29.867Z,16.67
2019-03-20T08:46:01.432Z,16.00
2019-03-20T08:48:30.836Z,13.10
2019-03-20T08:51:00.423Z,13.90
2019-03-20T08:53:29.975Z,11.63
2019-03-20T08:56:00.074Z,17.57
2019-03-20T08:58:29.628Z,17.83
2019-03-20T09:00:59.196Z,16.17
2019-03-20T09:03:28.528Z,17.37
2019-03-20T09:05:58.093Z,18.27
2019-03-20T09:08:29.701Z,18.87
2019-03-20T09:10:58.811Z,17.07
2019-03-20T09:13:28.139Z,19.37
2019-03-20T09:15:57.713Z,13.87
2019-03-20T09:18:27.078Z,11.63
2019-03-20T09:20:56.668Z,20.07
2019-03-20T09:23:26.118Z,13.53
2019-03-20T09:25:55.380Z,13.83
2019-03-20T09:28:24.684Z,15.33
2019-03-20T09:30:54.251Z,14.07
2019-03-20T09:33:23.531Z,15.77
2019-03-20T09:35:53.203Z,15.93
2019-03-20T09:38:22.597Z,12.90
2019-03-20T09:40:51.868Z,17.53
2019-03-20T09:43:21.440Z,13.23
2019-03-20T09:45:51.309Z,16.30
2019-03-20T09:48:21.165Z,16.57
2019-03-20T09:50:50.764Z,14.93
2019-03-20T09:53:20.046Z,14.77
2019-03-20T09:55:49.628Z,11.03
2019-03-20T09:58:19.303Z,13.30
2019-03-20T10:00:49.178Z,11.27
2019-03-20T10:03:18.494Z,19.83
2019-03-20T10:05:48.048Z,10.63
2019-03-20T10:08:18.047Z,12.33
2019-03-20T10:10:47.361Z,10.33
2019-03-20T10:13:16.826Z,17.87
2019-03-20T10:15:46.077Z,13.50
2019-03-20T10:18:15.701Z,15.47
2019-03-20T10:20:45.023Z,13.17
2019-03-20T10:23:15.646Z,14.20
2019-03-20T10:25:45.237Z,9.83
2019-03-20T10:28:14.529Z,13.00
2019-03-20T10:30:43.806Z,13.93
2019-03-20T10:33:13.412Z,11.30
2019-03-20T10:35:50.160Z,18.37
2019-03-20T10:38:13.999Z,17.30
2019-03-20T10:40:43.320Z,10.70
2019-03-20T10:43:13.181Z,17.73
2019-03-20T10:45:42.739Z,14.03
2019-03-20T10:48:12.160Z,14.87
2019-03-20T10:50:41.453Z,18.10
2019-03-20T10:53:11.138Z,11.20
2019-03-20T10:55:41.687Z,18.40
2019-03-20T10:58:11.004Z,17.00
2019-03-20T11:00:40.916Z,15.50
2019-03-20T11:03:12.283Z,14.37
2019-03-20T11:05:41.611Z,12.20
2019-03-20T11:08:12.922Z,16.00
2019-03-20T11:10:42.012Z,16.03
2019-03-20T11:13:11.643Z,14.30
2019-03-20T11:15:40.927Z,16.43
2019-03-20T11:18:10.323Z,15.50
2019-03-20T11:20:39.751Z,14.37
2019-03-20T11:23:09.145Z,14.10
2019-03-20T11:25:38.494Z,13.30
2019-03-20T11:28:07.895Z,12.50
2019-03-20T11:30:37.388Z,12.80
2019-03-20T11:33:06.739Z,16.20
2019-03-20T11:35:36.298Z,16.17
2019-03-20T11:38:05.997Z,21.90
2019-03-20T11:40:37.988Z,16.23
2019-03-20T11:43:07.287Z,14.03
2019-03-20T11:45:36.639Z,17.23
2019-03-20T11:48:06.159Z,20.40
2019-03-20T11:50:37.221Z,14.10
2019-03-20T11:53:06.943Z,15.60
2019-03-20T11:55:36.321Z,11.13
2019-03-20T11:58:06.126Z,12.80
2019-03-20T12:00:36.238Z,15.43
2019-03-20T12:03:05.766Z,14.43
2019-03-20T12:05:35.067Z,14.90
2019-03-20T12:08:04.866Z,12.90
2019-03-20T12:10:34.528Z,12.17
2019-03-20T12:13:04.149Z,13.60
2019-03-20T12:15:33.776Z,13.93
2019-03-20T12:18:03.076Z,14.23
2019-03-20T12:20:32.640Z,17.40
2019-03-20T12:23:02.218Z,10.30
2019-03-20T12:25:31.526Z,14.53
2019-03-20T12:28:00.824Z,17.03
2019-03-20T12:30:30.350Z,13.53
2019-03-20T12:32:59.759Z,18.43
2019-03-20T12:35:30.233Z,13.73
2019-03-20T12:37:59.723Z,13.07
2019-03-20T12:40:30.312Z,15.03
2019-03-20T12:43:00.136Z,16.17
2019-03-20T12:45:31.504Z,13.30
2019-03-20T12:48:01.161Z,13.40
2019-03-20T12:50:30.876Z,13.77
2019-03-20T12:53:01.752Z,16.93
2019-03-20T12:55:32.570Z,15.60
2019-03-20T12:58:02.064Z,13.50
2019-03-20T13:00:31.388Z,16.50
2019-03-20T13:03:00.712Z,12.77
2019-03-20T13:05:30.389Z,15.90
2019-03-20T13:08:05.695Z,15.17
2019-03-20T13:10:31.109Z,14.60
2019-03-20T13:13:00.420Z,14.13
2019-03-20T13:15:29.948Z,15.80
2019-03-20T13:17:59.272Z,14.00
2019-03-20T13:20:28.608Z,17.57
2019-03-20T13:23:00.908Z,12.17
2019-03-20T13:25:30.504Z,12.97
2019-03-20T13:27:59.822Z,13.43
2019-03-20T13:30:37.323Z,11.67
2019-03-20T13:33:06.747Z,9.93
2019-03-20T13:35:36.438Z,14.03
2019-03-20T13:38:06.145Z,13.97
2019-03-20T13:40:35.647Z,9.73
2019-03-20T13:43:05.175Z,12.67
2019-03-20T13:45:35.346Z,16.33
2019-03-20T13:48:04.880Z,16.03
2019-03-20T13:50:34.333Z,18.30
2019-03-20T13:53:03.888Z,15.73
2019-03-20T13:55:33.779Z,14.60
2019-03-20T13:58:03.919Z,14.37
2019-03-20T14:00:34.618Z,15.53
2019-03-20T14:03:04.675Z,16.00
2019-03-20T14:05:34.419Z,7.43
2019-03-20T14:08:03.742Z,12.67
2019-03-20T14:10:33.462Z,12.63
2019-03-20T14:13:03.156Z,9.87
2019-03-20T14:15:32.559Z,7.23
2019-03-20T14:18:02.141Z,13.67
2019-03-20T14:20:31.857Z,12.10
2019-03-20T14:23:01.410Z,11.03
2019-03-20T14:25:30.779Z,10.47
2019-03-20T14:28:00.589Z,12.83
2019-03-20T14:30:30.293Z,7.83
2019-03-20T14:32:59.750Z,12.70
2019-03-20T14:35:29.398Z,6.83
2019-03-20T14:37:59.004Z,8.40
2019-03-20T14:40:35.415Z,8.53
2019-03-20T14:43:00.610Z,8.10
2019-03-20T14:45:30.307Z,7.63
2019-03-20T14:47:59.888Z,6.50
2019-03-20T14:50:29.363Z,7.17
2019-03-20T14:52:58.933Z,10.63
2019-03-20T14:55:28.725Z,9.93
2019-03-20T14:57:58.135Z,9.17
2019-03-20T15:00:27.746Z,7.97
2019-03-20T15:02:57.387Z,6.63
2019-03-20T15:05:26.991Z,6.47
2019-03-20T15:07:56.392Z,6.83
2019-03-20T15:10:26.197Z,6.13
2019-03-20T15:12:55.533Z,4.23
2019-03-20T15:15:33.954Z,5.80
2019-03-20T15:18:03.260Z,7.40
2019-03-20T15:20:32.580Z,2.40
2019-03-20T15:23:02.014Z,2.77
2019-03-20T15:25:31.637Z,4.00
2019-03-20T15:28:01.225Z,5.47
2019-03-20T15:30:30.550Z,6.23
2019-03-20T15:32:59.911Z,4.17
2019-03-20T15:35:29.311Z,4.00
2019-03-20T15:37:58.959Z,7.07
2019-03-20T15:40:28.522Z,5.60
2019-03-20T15:42:58.285Z,4.07
2019-03-20T15:45:27.983Z,8.90
2019-03-20T15:47:57.440Z,7.77
2019-03-20T15:50:26.950Z,5.23
2019-03-20T15:52:56.624Z,9.47
2019-03-20T15:55:38.414Z,4.47
2019-03-20T15:58:07.791Z,5.30
2019-03-20T16:00:37.424Z,5.13
2019-03-20T16:03:09.771Z,3.33
2019-03-20T16:05:39.054Z,3.00
2019-03-20T16:08:09.166Z,6.30
2019-03-20T16:10:38.723Z,2.93
2019-03-20T16:13:08.316Z,5.73
2019-03-20T16:15:37.979Z,5.17
2019-03-20T16:18:07.511Z,5.03
2019-03-20T16:20:37.138Z,6.77
2019-03-20T16:23:06.758Z,7.63
2019-03-20T16:25:36.128Z,4.60
2019-03-20T16:28:05.782Z,7.30
2019-03-20T16:30:35.088Z,5.77
2019-03-20T16:33:04.404Z,3.97
2019-03-20T16:35:33.676Z,9.97
2019-03-20T16:38:02.995Z,8.73
2019-03-20T16:40:34.417Z,7.70
2019-03-20T16:43:04.352Z,4.40
2019-03-20T16:45:33.643Z,5.83
2019-03-20T16:48:02.938Z,8.00
2019-03-20T16:50:32.539Z,8.17
2019-03-20T16:53:01.818Z,8.80
2019-03-20T16:55:31.211Z,7.43
2019-03-20T16:58:00.531Z,7.80
2019-03-20T17:00:30.260Z,10.07
2019-03-20T17:02:59.600Z,7.33
2019-03-20T17:05:29.551Z,7.47
2019-03-20T17:07:59.090Z,6.13
2019-03-20T17:10:30.714Z,7.13
2019-03-20T17:13:00.106Z,7.70
2019-03-20T17:15:30.003Z,10.33
2019-03-20T17:17:59.583Z,10.73
2019-03-20T17:20:28.955Z,6.87
2019-03-20T17:22:58.573Z,16.90
2019-03-20T17:25:27.865Z,8.17
2019-03-20T17:27:57.423Z,9.40
2019-03-20T17:30:32.345Z,7.07
2019-03-20T17:33:02.045Z,6.20
2019-03-20T17:35:32.330Z,5.60
2019-03-20T17:38:02.350Z,9.17
2019-03-20T17:40:31.695Z,8.80
2019-03-20T17:43:01.089Z,8.70
2019-03-20T17:45:31.236Z,9.73
2019-03-20T17:48:00.757Z,5.83
2019-03-20T17:50:30.597Z,6.37
2019-03-20T17:53:00.045Z,6.20
2019-03-20T17:55:33.270Z,5.97
2019-03-20T17:58:02.901Z,9.23
2019-03-20T18:00:36.099Z,10.00
2019-03-20T18:03:06.686Z,12.07
2019-03-20T18:05:36.150Z,13.40
2019-03-20T18:08:05.820Z,9.17
2019-03-20T18:10:35.389Z,8.27
2019-03-20T18:13:05.340Z,14.80
2019-03-20T18:15:34.727Z,9.80
2019-03-20T18:18:04.972Z,11.20
2019-03-20T18:20:35.006Z,10.97
2019-03-20T18:23:08.464Z,10.87
2019-03-20T18:25:38.516Z,13.07
2019-03-20T18:28:07.903Z,6.67
2019-03-20T18:30:40.338Z,12.13
2019-03-20T18:33:09.678Z,11.27
2019-03-20T18:35:39.006Z,11.50
2019-03-20T18:38:09.270Z,8.50
2019-03-20T18:40:39.698Z,9.33
2019-03-20T18:43:09.451Z,10.03
2019-03-20T18:45:38.799Z,11.57
2019-03-20T18:48:08.415Z,12.63
2019-03-20T18:50:37.829Z,15.27
2019-03-20T18:53:41.357Z,17.27
2019-03-20T18:55:56.099Z,13.67
2019-03-20T18:58:25.792Z,13.63
2019-03-20T19:01:02.643Z,13.10
2019-03-20T19:03:35.072Z,11.80
2019-03-20T19:06:23.080Z,14.20
2019-03-20T19:09:00.948Z,23.70
2019-03-20T19:11:31.007Z,27.43
2019-03-20T19:14:00.326Z,20.67
2019-03-20T19:16:29.633Z,17.27
2019-03-20T19:18:58.963Z,26.83
2019-03-20T19:21:28.334Z,18.77
2019-03-20T19:23:57.752Z,14.10
2019-03-20T19:26:27.210Z,15.80
2019-03-20T19:28:56.907Z,19.83
2019-03-20T19:31:26.222Z,18.70
2019-03-20T19:33:55.504Z,22.03
2019-03-20T19:36:25.150Z,18.13
2019-03-20T19:38:54.471Z,15.10
2019-03-20T19:41:23.772Z,16.73
2019-03-20T19:43:58.891Z,19.97
2019-03-20T19:46:28.994Z,22.50
2019-03-20T19:48:58.789Z,18.40
2019-03-20T19:51:28.499Z,17.33
2019-03-20T19:53:57.800Z,17.87
2019-03-20T19:56:27.389Z,24.23
2019-03-20T19:58:56.776Z,17.40
2019-03-20T20:01:26.344Z,16.73
2019-03-20T20:03:58.153Z,14.30
2019-03-20T20:06:28.598Z,17.60
2019-03-20T20:08:57.977Z,37.43
2019-03-20T20:11:27.560Z,20.90
2019-03-20T20:13:57.004Z,17.37
2019-03-20T20:16:26.461Z,22.83
2019-03-20T20:18:55.920Z,21.57
2019-03-20T20:21:25.804Z,21.90
2019-03-20T20:23:55.396Z,13.70
2019-03-20T20:26:25.385Z,17.47
2019-03-20T20:28:55.176Z,15.80
2019-03-20T20:31:24.580Z,18.00
2019-03-20T20:33:53.991Z,17.77
2019-03-20T20:36:23.421Z,20.43
2019-03-20T20:38:52.768Z,18.57
2019-03-20T20:41:22.454Z,19.60
2019-03-20T20:43:52.061Z,17.93
2019-03-20T20:46:21.786Z,19.13
2019-03-20T20:48:51.465Z,18.10
2019-03-20T20:51:21.190Z,15.60
2019-03-20T20:53:50.782Z,15.87
2019-03-20T20:56:22.548Z,18.77
2019-03-20T20:58:51.959Z,17.73
2019-03-20T21:01:21.645Z,16.27
2019-03-20T21:03:51.576Z,13.60
2019-03-20T21:06:21.200Z,17.60
2019-03-20T21:08:50.903Z,14.93
2019-03-20T21:11:20.579Z,16.33
2019-03-20T21:13:50.983Z,17.53
2019-03-20T21:16:20.949Z,21.07
2019-03-20T21:19:27.184Z,22.80
2019-03-20T21:22:41.079Z,15.90
2019-03-20T21:25:11.378Z,19.10
2019-03-20T21:28:09.461Z,16.57
2019-03-20T21:31:07.050Z,21.30
2019-03-20T21:34:05.370Z,17.43
2019-03-20T21:37:08.899Z,22.23
2019-03-20T21:39:38.832Z,21.03
2019-03-20T21:42:47.984Z,27.63
2019-03-20T21:45:59.406Z,20.50
2019-03-20T21:48:29.346Z,21.07
2019-03-20T21:51:17.120Z,14.23
2019-03-20T21:54:36.240Z,16.43
2019-03-20T21:57:32.590Z,20.83
2019-03-20T22:00:41.929Z,25.63
2019-03-20T22:03:11.857Z,39.83
2019-03-20T22:06:33.300Z,34.30
2019-03-20T22:09:13.647Z,27.30
2019-03-20T22:12:21.819Z,27.63
2019-03-20T22:14:59.377Z,23.80
2019-03-20T22:17:56.571Z,23.60
2019-03-20T22:20:48.937Z,22.27
2019-03-20T22:23:59.691Z,18.80
2019-03-20T22:27:01.773Z,18.63
2019-03-20T22:29:31.872Z,17.83
2019-03-20T22:32:32.556Z,19.87
2019-03-20T22:35:31.997Z,14.87
2019-03-20T22:38:03.237Z,14.23
2019-03-20T22:41:23.289Z,14.13
2019-03-20T22:44:03.386Z,16.00
2019-03-20T22:47:10.906Z,16.37
2019-03-20T22:50:26.506Z,12.97
2019-03-20T22:53:32.831Z,11.53
2019-03-20T22:57:10.728Z,18.80
2019-03-20T22:59:40.628Z,13.37
2019-03-20T23:02:24.670Z,11.57
2019-03-20T23:04:57.556Z,16.03
2019-03-20T23:07:27.649Z,14.77
2019-03-20T23:09:57.867Z,11.13
2019-03-20T23:12:28.020Z,14.17
2019-03-20T23:14:58.095Z,11.77
2019-03-20T23:17:27.996Z,10.33
2019-03-20T23:19:58.488Z,14.67
2019-03-20T23:22:28.575Z,13.73
2019-03-20T23:24:58.435Z,14.73
2019-03-20T23:27:30.524Z,13.80
2019-03-20T23:30:01.076Z,13.10
2019-03-20T23:32:31.507Z,9.77
2019-03-20T23:35:01.653Z,12.70
2019-03-20T23:37:33.312Z,14.17
2019-03-20T23:40:04.797Z,11.40
2019-03-20T23:42:34.895Z,13.27
2019-03-20T23:45:05.298Z,11.80
2019-03-20T23:48:00.327Z,14.37
2019-03-20T23:50:30.463Z,13.00
2019-03-20T23:53:00.297Z,13.53
2019-03-20T23:55:30.370Z,12.60
2019-03-20T23:58:00.443Z,18.90
